createdAt,value
2019-04-20T00:00:09.437Z,18.02
2019-04-20T00:01:24.545Z,12.00
2019-04-20T00:02:13.850Z,9.18
2019-04-20T00:02:59.769Z,11.45
2019-04-20T00:03:50.109Z,9.78
2019-04-20T00:04:39.302Z,9.20
2019-04-20T00:05:30.857Z,10.85
2019-04-20T00:06:21.531Z,11.97
2019-04-20T00:07:12.242Z,11.68
2019-04-20T00:08:09.133Z,12.47
2019-04-20T00:09:03.515Z,8.85
2019-04-20T00:09:50.245Z,11.25
2019-04-20T00:10:45.219Z,9.90
2019-04-20T00:11:36.525Z,10.40
2019-04-20T00:12:33.253Z,11.68
2019-04-20T00:13:23.005Z,9.03
2019-04-20T00:14:08.290Z,13.10
2019-04-20T00:14:52.252Z,10.28
2019-04-20T00:15:44.988Z,9.50
2019-04-20T00:16:35.685Z,9.15
2019-04-20T00:17:26.625Z,10.82
2019-04-20T00:18:17.076Z,10.80
2019-04-20T00:19:09.417Z,15.78
2019-04-20T00:20:04.668Z,11.88
2019-04-20T00:21:00.319Z,9.50
2019-04-20T00:22:02.037Z,9.83
2019-04-20T00:22:59.861Z,9.30
2019-04-20T00:23:54.786Z,10.63
2019-04-20T00:25:10.063Z,11.90
2019-04-20T00:27:09.227Z,8.70
2019-04-20T00:27:50.497Z,18.05
2019-04-20T00:28:40.023Z,11.53
2019-04-20T00:29:29.426Z,14.53
2019-04-20T00:30:26.448Z,10.78
2019-04-20T00:31:13.854Z,11.15
2019-04-20T00:32:01.639Z,16.27
2019-04-20T00:32:53.340Z,11.78
2019-04-20T00:33:45.837Z,11.03
2019-04-20T00:34:25.588Z,9.83
2019-04-20T00:35:12.425Z,13.35
2019-04-20T00:36:03.278Z,10.95
2019-04-20T00:36:54.118Z,13.55
2019-04-20T00:37:46.694Z,11.38
2019-04-20T00:38:42.648Z,15.70
2019-04-20T00:39:29.851Z,9.20
2019-04-20T00:40:21.270Z,10.00
2019-04-20T00:41:13.689Z,9.50
2019-04-20T00:42:06.125Z,9.05
2019-04-20T00:42:55.157Z,11.90
2019-04-20T00:43:44.220Z,10.88
2019-04-20T00:44:39.571Z,11.57
2019-04-20T00:45:31.500Z,10.40
2019-04-20T00:46:26.430Z,9.93
2019-04-20T00:47:20.076Z,10.18
2019-04-20T00:48:05.692Z,10.98
2019-04-20T00:48:55.939Z,10.08
2019-04-20T00:49:53.624Z,9.10
2019-04-20T00:50:44.501Z,8.98
2019-04-20T00:51:39.119Z,9.45
2019-04-20T00:52:30.735Z,8.75
2019-04-20T00:53:19.861Z,13.80
2019-04-20T00:53:59.256Z,11.00
2019-04-20T00:54:49.427Z,11.40
2019-04-20T00:55:42.222Z,10.40
2019-04-20T00:56:33.009Z,9.48
2019-04-20T00:57:34.620Z,11.80
2019-04-20T00:58:23.632Z,13.05
2019-04-20T00:59:20.486Z,9.88
2019-04-20T01:00:19.810Z,10.38
2019-04-20T01:01:16.489Z,9.45
2019-04-20T01:01:59.845Z,12.28
2019-04-20T01:02:43.526Z,12.90
2019-04-20T01:03:41.273Z,8.63
2019-04-20T01:04:30.084Z,11.63
2019-04-20T01:05:18.071Z,10.75
2019-04-20T01:06:22.215Z,12.70
2019-04-20T01:07:20.278Z,12.33
2019-04-20T01:08:33.967Z,12.82
2019-04-20T01:09:27.349Z,10.82
2019-04-20T01:10:19.391Z,11.10
2019-04-20T01:11:10.753Z,12.07
2019-04-20T01:12:11.736Z,10.53
2019-04-20T01:13:03.405Z,13.55
2019-04-20T01:13:49.399Z,12.53
2019-04-20T01:14:46.240Z,11.85
2019-04-20T01:15:36.395Z,14.38
2019-04-20T01:16:25.521Z,18.48
2019-04-20T01:17:12.152Z,14.43
2019-04-20T01:18:01.358Z,10.35
2019-04-20T01:18:52.264Z,14.75
2019-04-20T01:19:42.415Z,10.38
2019-04-20T01:20:33.241Z,16.20
2019-04-20T01:21:27.143Z,15.25
2019-04-20T01:22:18.479Z,11.88
2019-04-20T01:23:10.014Z,10.65
2019-04-20T01:24:01.533Z,12.47
2019-04-20T01:24:48.716Z,10.40
2019-04-20T01:25:42.453Z,10.70
2019-04-20T01:26:29.420Z,10.18
2019-04-20T01:27:34.556Z,9.90
2019-04-20T01:28:27.840Z,10.08
2019-04-20T01:29:12.164Z,13.85
2019-04-20T01:30:03.366Z,12.80
2019-04-20T01:30:58.544Z,11.28
2019-04-20T01:31:45.200Z,13.35
2019-04-20T01:32:36.028Z,11.88
2019-04-20T01:33:31.868Z,14.45
2019-04-20T01:34:26.690Z,10.48
2019-04-20T01:35:21.486Z,10.80
2019-04-20T01:36:03.250Z,8.33
2019-04-20T01:36:55.614Z,15.60
2019-04-20T01:37:52.238Z,10.65
2019-04-20T01:38:39.901Z,14.15
2019-04-20T01:39:23.958Z,10.78
2019-04-20T01:40:07.766Z,10.13
2019-04-20T01:40:57.141Z,13.72
2019-04-20T01:41:47.567Z,10.18
2019-04-20T01:42:38.079Z,10.53
2019-04-20T01:43:29.115Z,16.48
2019-04-20T01:44:27.006Z,12.82
2019-04-20T01:45:14.629Z,8.85
2019-04-20T01:46:11.274Z,12.55
2019-04-20T01:46:58.730Z,12.53
2019-04-20T01:47:50.541Z,14.43
2019-04-20T01:48:38.649Z,15.18
2019-04-20T01:49:32.394Z,12.95
2019-04-20T01:50:24.712Z,11.18
2019-04-20T01:51:17.308Z,14.13
2019-04-20T01:52:10.975Z,11.88
2019-04-20T01:53:09.009Z,11.03
2019-04-20T01:54:06.523Z,11.78
2019-04-20T01:54:59.160Z,7.95
2019-04-20T01:56:01.590Z,19.77
2019-04-20T01:56:36.149Z,25.37
2019-04-20T01:57:32.224Z,28.02
2019-04-20T01:58:36.396Z,23.90
2019-04-20T01:59:37.075Z,18.32
2019-04-20T02:00:49.635Z,16.37
2019-04-20T02:02:09.896Z,13.75
2019-04-20T02:03:15.030Z,13.60
2019-04-20T02:04:22.456Z,10.82
2019-04-20T02:05:20.761Z,13.35
2019-04-20T02:06:08.263Z,11.38
2019-04-20T02:06:59.567Z,15.38
2019-04-20T02:07:48.662Z,13.80
2019-04-20T02:08:37.728Z,14.07
2019-04-20T02:09:31.150Z,13.25
2019-04-20T02:10:21.780Z,10.30
2019-04-20T02:11:18.651Z,15.85
2019-04-20T02:12:10.395Z,15.93
2019-04-20T02:12:57.560Z,12.58
2019-04-20T02:13:51.260Z,11.28
2019-04-20T02:14:41.210Z,7.30
2019-04-20T02:15:33.220Z,12.47
2019-04-20T02:16:27.588Z,18.67
2019-04-20T02:17:16.774Z,21.97
2019-04-20T02:18:07.711Z,40.73
2019-04-20T02:19:06.566Z,43.75
2019-04-20T02:20:00.978Z,32.17
2019-04-20T02:20:50.272Z,26.10
2019-04-20T02:21:37.872Z,18.95
2019-04-20T02:22:30.308Z,20.55
2019-04-20T02:23:16.074Z,19.98
2019-04-20T02:23:57.992Z,22.75
2019-04-20T02:24:44.888Z,16.57
2019-04-20T02:25:35.851Z,20.85
2019-04-20T02:26:28.160Z,18.67
2019-04-20T02:27:20.629Z,16.93
2019-04-20T02:28:29.774Z,16.95
2019-04-20T02:29:24.688Z,17.77
2019-04-20T02:30:21.661Z,20.82
2019-04-20T02:31:23.021Z,19.60
2019-04-20T02:33:14.634Z,22.50
2019-04-20T02:33:59.237Z,24.77
2019-04-20T02:34:59.359Z,17.60
2019-04-20T02:36:20.867Z,18.52
2019-04-20T02:37:13.892Z,19.37
2019-04-20T02:38:10.552Z,18.95
2019-04-20T02:39:31.038Z,15.25
2019-04-20T02:40:00.860Z,13.62
2019-04-20T02:40:52.574Z,14.73
2019-04-20T02:41:44.872Z,11.40
2019-04-20T02:42:38.664Z,12.82
2019-04-20T02:43:30.475Z,19.07
2019-04-20T02:44:23.566Z,22.55
2019-04-20T02:47:47.783Z,19.87
2019-04-20T02:48:35.670Z,20.32
2019-04-20T02:49:36.280Z,16.05
2019-04-20T02:50:19.134Z,16.27
2019-04-20T02:51:06.605Z,16.82
2019-04-20T02:52:56.886Z,18.90
2019-04-20T02:53:51.182Z,17.62
2019-04-20T02:54:26.683Z,16.67
2019-04-20T02:55:22.839Z,17.50
2019-04-20T02:56:26.557Z,16.70
2019-04-20T02:58:00.729Z,14.05
2019-04-20T02:58:50.289Z,15.40
2019-04-20T03:00:25.122Z,12.20
2019-04-20T03:01:30.925Z,10.55
2019-04-20T03:02:23.786Z,12.85
2019-04-20T03:03:07.818Z,14.23
2019-04-20T03:03:51.119Z,17.92
2019-04-20T03:04:47.163Z,9.73
2019-04-20T03:05:41.398Z,13.78
2019-04-20T03:06:33.041Z,13.03
2019-04-20T03:07:28.148Z,10.80
2019-04-20T03:08:22.108Z,11.88
2019-04-20T03:09:17.452Z,11.43
2019-04-20T03:10:03.936Z,10.28
2019-04-20T03:11:05.816Z,14.30
2019-04-20T03:11:53.001Z,10.82
2019-04-20T03:12:38.843Z,15.30
2019-04-20T03:13:25.370Z,12.23
2019-04-20T03:14:15.684Z,12.03
2019-04-20T03:15:01.620Z,8.85
2019-04-20T03:16:01.790Z,12.63
2019-04-20T03:16:51.751Z,11.65
2019-04-20T03:17:46.025Z,14.63
2019-04-20T03:18:34.015Z,12.28
2019-04-20T03:19:17.353Z,15.18
2019-04-20T03:20:18.819Z,16.55
2019-04-20T03:21:08.136Z,13.25
2019-04-20T03:21:59.776Z,11.38
2019-04-20T03:23:15.921Z,12.55
2019-04-20T03:23:44.183Z,14.87
2019-04-20T03:24:35.696Z,10.82
2019-04-20T03:25:46.688Z,13.38
2019-04-20T03:26:36.555Z,11.15
2019-04-20T03:27:33.777Z,14.23
2019-04-20T03:28:42.980Z,15.40
2019-04-20T03:29:52.344Z,11.25
2019-04-20T03:31:29.483Z,11.60
2019-04-20T03:32:30.634Z,16.65
2019-04-20T03:33:11.765Z,12.25
2019-04-20T03:34:00.742Z,13.65
2019-04-20T03:35:28.339Z,11.73
2019-04-20T03:36:25.190Z,11.08
2019-04-20T03:37:17.084Z,13.83
2019-04-20T03:38:00.044Z,12.85
2019-04-20T03:38:48.447Z,13.22
2019-04-20T03:39:37.609Z,12.05
2019-04-20T03:40:24.326Z,13.30
2019-04-20T03:41:14.865Z,14.63
2019-04-20T03:41:56.674Z,11.75
2019-04-20T03:42:44.730Z,11.97
2019-04-20T03:43:34.915Z,13.13
2019-04-20T03:44:27.785Z,12.33
2019-04-20T03:45:21.038Z,12.73
2019-04-20T03:46:12.570Z,12.68
2019-04-20T03:47:04.562Z,8.00
2019-04-20T03:48:05.400Z,10.90
2019-04-20T03:48:54.658Z,11.85
2019-04-20T03:49:55.052Z,10.70
2019-04-20T03:50:46.366Z,13.25
2019-04-20T03:51:33.310Z,11.00
2019-04-20T03:52:24.630Z,10.38
2019-04-20T03:53:23.051Z,11.90
2019-04-20T03:54:22.222Z,14.03
2019-04-20T03:55:18.748Z,12.65
2019-04-20T03:56:28.051Z,16.00
2019-04-20T03:57:34.351Z,11.83
2019-04-20T03:58:42.360Z,9.25
2019-04-20T03:59:44.626Z,9.83
2019-04-20T04:00:50.812Z,11.75
2019-04-20T04:03:20.226Z,12.55
2019-04-20T04:04:17.487Z,14.65
2019-04-20T04:05:08.859Z,12.50
2019-04-20T04:06:06.429Z,9.93
2019-04-20T04:06:51.681Z,10.75
2019-04-20T04:07:43.183Z,11.57
2019-04-20T04:08:36.385Z,9.45
2019-04-20T04:09:30.521Z,9.05
2019-04-20T04:10:25.861Z,12.23
2019-04-20T04:11:19.969Z,10.13
2019-04-20T04:12:05.728Z,14.58
2019-04-20T04:13:09.712Z,9.18
2019-04-20T04:14:01.210Z,9.13
2019-04-20T04:14:53.693Z,13.68
2019-04-20T04:15:50.290Z,11.30
2019-04-20T04:16:42.203Z,11.20
2019-04-20T04:17:30.296Z,11.88
2019-04-20T04:18:23.311Z,16.05
2019-04-20T04:19:16.185Z,13.25
2019-04-20T04:20:03.514Z,16.25
2019-04-20T04:20:55.505Z,17.40
2019-04-20T04:21:53.741Z,10.28
2019-04-20T04:22:44.079Z,10.75
2019-04-20T04:23:38.065Z,15.55
2019-04-20T04:24:22.620Z,12.75
2019-04-20T04:25:14.820Z,12.53
2019-04-20T04:26:08.528Z,11.93
2019-04-20T04:26:54.829Z,15.83
2019-04-20T04:27:56.096Z,15.28
2019-04-20T04:28:40.889Z,12.10
2019-04-20T04:29:38.255Z,8.45
2019-04-20T04:30:21.885Z,12.73
2019-04-20T04:31:15.730Z,12.43
2019-04-20T04:32:25.545Z,11.03
2019-04-20T04:33:20.198Z,13.62
2019-04-20T04:33:55.542Z,11.97
2019-04-20T04:34:46.883Z,12.55
2019-04-20T04:35:27.147Z,11.28
2019-04-20T04:36:22.197Z,11.00
2019-04-20T04:37:17.608Z,16.95
2019-04-20T04:38:09.427Z,20.72
2019-04-20T04:39:02.561Z,14.70
2019-04-20T04:39:49.055Z,16.80
2019-04-20T04:40:51.488Z,20.55
2019-04-20T04:41:37.967Z,21.55
2019-04-20T04:42:30.412Z,24.67
2019-04-20T04:43:19.783Z,13.95
2019-04-20T04:44:09.645Z,19.30
2019-04-20T04:44:50.577Z,20.95
2019-04-20T04:45:33.970Z,42.23
2019-04-20T04:46:24.846Z,47.78
2019-04-20T04:47:15.299Z,64.70
2019-04-20T04:48:06.695Z,56.77
2019-04-20T04:49:08.766Z,61.45
2019-04-20T04:49:59.977Z,88.62
2019-04-20T04:50:47.504Z,21.20
2019-04-20T04:51:42.701Z,18.55
2019-04-20T04:52:34.201Z,20.55
2019-04-20T04:53:34.794Z,17.92
2019-04-20T04:54:16.763Z,15.53
2019-04-20T04:55:12.120Z,14.20
2019-04-20T04:55:56.457Z,14.45
2019-04-20T04:56:39.677Z,13.30
2019-04-20T04:57:30.501Z,19.55
2019-04-20T04:58:21.588Z,23.10
2019-04-20T04:59:13.280Z,23.65
2019-04-20T05:00:05.691Z,20.32
2019-04-20T05:01:05.544Z,18.65
2019-04-20T05:01:54.786Z,18.45
2019-04-20T05:02:48.893Z,16.85
2019-04-20T05:03:54.033Z,19.42
2019-04-20T05:05:06.957Z,15.58
2019-04-20T05:06:14.767Z,13.95
2019-04-20T05:06:59.506Z,15.88
2019-04-20T05:07:51.801Z,13.68
2019-04-20T05:08:41.145Z,16.15
2019-04-20T05:09:25.493Z,17.92
2019-04-20T05:10:16.063Z,14.80
2019-04-20T05:11:08.885Z,15.18
2019-04-20T05:12:05.489Z,13.13
2019-04-20T05:12:48.268Z,26.73
2019-04-20T05:13:49.035Z,19.65
2019-04-20T05:14:40.575Z,23.18
2019-04-20T05:15:37.376Z,21.73
2019-04-20T05:16:35.963Z,19.60
2019-04-20T05:17:20.697Z,22.58
2019-04-20T05:18:11.922Z,21.90
2019-04-20T05:19:13.248Z,21.57
2019-04-20T05:19:57.486Z,20.23
2019-04-20T05:20:54.661Z,19.17
2019-04-20T05:22:01.297Z,21.07
2019-04-20T05:22:58.199Z,14.83
2019-04-20T05:24:07.588Z,17.00
2019-04-20T05:25:07.102Z,21.12
2019-04-20T05:26:30.796Z,14.90
2019-04-20T05:27:39.162Z,16.15
2019-04-20T05:28:25.336Z,15.60
2019-04-20T05:29:10.762Z,17.27
2019-04-20T05:29:53.306Z,16.67
2019-04-20T05:30:48.600Z,14.18
2019-04-20T05:31:46.231Z,28.07
2019-04-20T05:32:35.850Z,25.40
2019-04-20T05:33:27.765Z,27.07
2019-04-20T05:34:30.518Z,23.87
2019-04-20T05:35:23.274Z,20.17
2019-04-20T05:36:14.719Z,20.20
2019-04-20T05:36:57.522Z,15.50
2019-04-20T05:38:02.723Z,20.68
2019-04-20T05:38:48.149Z,15.32
2019-04-20T05:39:38.221Z,18.82
2019-04-20T05:40:29.178Z,16.12
2019-04-20T05:41:16.982Z,13.18
2019-04-20T05:42:12.790Z,14.63
2019-04-20T05:43:06.478Z,12.40
2019-04-20T05:44:12.805Z,11.53
2019-04-20T05:45:07.564Z,15.90
2019-04-20T05:45:50.196Z,12.23
2019-04-20T05:46:56.598Z,12.15
2019-04-20T05:47:40.177Z,12.18
2019-04-20T05:48:36.247Z,13.00
2019-04-20T05:49:25.882Z,11.78
2019-04-20T05:50:08.339Z,10.18
2019-04-20T05:51:01.973Z,10.20
2019-04-20T05:51:54.310Z,10.03
2019-04-20T05:53:41.252Z,13.98
2019-04-20T05:54:36.475Z,13.13
2019-04-20T05:55:21.016Z,13.20
2019-04-20T05:56:10.842Z,8.08
2019-04-20T05:57:07.817Z,11.55
2019-04-20T05:57:56.753Z,10.15
2019-04-20T05:58:45.057Z,14.93
2019-04-20T05:59:47.019Z,11.60
2019-04-20T06:00:34.560Z,9.90
2019-04-20T06:01:20.224Z,11.73
2019-04-20T06:02:14.049Z,11.97
2019-04-20T06:03:00.491Z,10.80
2019-04-20T06:03:55.634Z,12.18
2019-04-20T06:04:59.655Z,11.95
2019-04-20T06:05:46.011Z,12.35
2019-04-20T06:06:33.142Z,17.10
2019-04-20T06:07:26.868Z,14.78
2019-04-20T06:08:20.416Z,11.35
2019-04-20T06:09:12.037Z,12.15
2019-04-20T06:10:00.597Z,9.98
2019-04-20T06:11:12.382Z,12.35
2019-04-20T06:12:07.615Z,10.13
2019-04-20T06:12:51.934Z,9.95
2019-04-20T06:13:53.491Z,13.22
2019-04-20T06:15:05.568Z,10.15
2019-04-20T06:16:07.832Z,13.22
2019-04-20T06:17:11.145Z,11.97
2019-04-20T06:18:06.586Z,11.65
2019-04-20T06:19:17.547Z,15.20
2019-04-20T06:20:02.380Z,12.03
2019-04-20T06:20:50.394Z,13.08
2019-04-20T06:21:57.688Z,9.95
2019-04-20T06:22:52.698Z,14.80
2019-04-20T06:23:53.195Z,11.80
2019-04-20T06:24:49.447Z,9.43
2019-04-20T06:25:58.612Z,12.73
2019-04-20T06:26:51.945Z,10.65
2019-04-20T06:27:34.176Z,11.53
2019-04-20T06:28:19.703Z,14.47
2019-04-20T06:29:09.702Z,11.63
2019-04-20T06:30:04.273Z,11.75
2019-04-20T06:30:49.434Z,9.83
2019-04-20T06:31:48.987Z,11.65
2019-04-20T06:33:50.259Z,12.35
2019-04-20T06:34:35.517Z,12.20
2019-04-20T06:35:18.929Z,12.13
2019-04-20T06:36:13.417Z,14.85
2019-04-20T06:37:56.495Z,12.95
2019-04-20T06:39:48.749Z,9.83
2019-04-20T06:40:37.304Z,13.13
2019-04-20T06:41:21.529Z,13.20
2019-04-20T06:42:13.982Z,11.80
2019-04-20T06:42:59.718Z,11.03
2019-04-20T06:43:54.311Z,12.47
2019-04-20T06:44:59.706Z,11.25
2019-04-20T06:45:35.029Z,9.45
2019-04-20T06:46:22.501Z,13.40
2019-04-20T06:47:15.505Z,11.18
2019-04-20T06:48:20.402Z,13.25
2019-04-20T06:49:05.596Z,9.28
2019-04-20T06:49:45.302Z,10.58
2019-04-20T06:50:38.501Z,11.35
2019-04-20T06:51:36.108Z,10.78
2019-04-20T06:52:40.887Z,12.78
2019-04-20T06:53:47.475Z,10.88
2019-04-20T06:54:42.214Z,11.55
2019-04-20T06:55:38.621Z,9.33
2019-04-20T06:56:29.565Z,13.03
2019-04-20T06:57:18.366Z,10.68
2019-04-20T06:58:20.525Z,12.78
2019-04-20T06:59:08.412Z,10.95
2019-04-20T06:59:47.699Z,9.93
2019-04-20T07:00:44.496Z,10.95
2019-04-20T07:01:36.976Z,14.23
2019-04-20T07:02:29.890Z,11.80
2019-04-20T07:03:18.437Z,16.62
2019-04-20T07:04:21.194Z,11.73
2019-04-20T07:04:55.958Z,10.05
2019-04-20T07:05:47.716Z,12.90
2019-04-20T07:07:00.524Z,12.40
2019-04-20T07:07:33.912Z,12.80
2019-04-20T07:08:33.388Z,11.03
2019-04-20T07:09:15.325Z,10.58
2019-04-20T07:10:57.856Z,14.55
2019-04-20T07:11:46.743Z,11.53
2019-04-20T07:12:36.889Z,12.93
2019-04-20T07:13:24.064Z,12.78
2019-04-20T07:14:08.539Z,15.28
2019-04-20T07:15:09.719Z,13.45
2019-04-20T07:16:13.771Z,11.38
2019-04-20T07:17:43.825Z,11.00
2019-04-20T07:18:15.716Z,11.10
2019-04-20T07:19:24.008Z,11.73
2019-04-20T07:20:19.475Z,11.88
2019-04-20T07:21:35.420Z,10.43
2019-04-20T07:22:36.072Z,12.15
2019-04-20T07:23:18.191Z,12.35
2019-04-20T07:24:05.062Z,11.60
2019-04-20T07:24:59.291Z,11.97
2019-04-20T07:25:52.750Z,10.53
2019-04-20T07:26:41.667Z,8.73
2019-04-20T07:27:33.642Z,8.35
2019-04-20T07:28:22.921Z,9.95
2019-04-20T07:29:15.744Z,11.75
2019-04-20T07:30:03.805Z,8.05
2019-04-20T07:30:50.271Z,10.08
2019-04-20T07:31:41.359Z,8.58
2019-04-20T07:32:44.350Z,10.90
2019-04-20T07:33:30.342Z,10.60
2019-04-20T07:34:23.012Z,8.58
2019-04-20T07:35:09.850Z,10.53
2019-04-20T07:36:04.105Z,8.80
2019-04-20T07:37:19.348Z,11.73
2019-04-20T07:38:10.419Z,10.35
2019-04-20T07:38:40.233Z,8.63
2019-04-20T07:39:32.783Z,11.28
2019-04-20T07:40:23.219Z,10.35
2019-04-20T07:41:08.730Z,8.45
2019-04-20T07:42:12.022Z,11.35
2019-04-20T07:43:52.981Z,10.45
2019-04-20T07:44:41.412Z,12.88
2019-04-20T07:45:29.566Z,10.55
2019-04-20T07:46:37.625Z,10.95
2019-04-20T07:47:13.778Z,10.68
2019-04-20T07:48:09.319Z,9.08
2019-04-20T07:48:59.900Z,10.65
2019-04-20T07:49:44.367Z,11.97
2019-04-20T07:50:32.107Z,14.05
2019-04-20T07:51:16.144Z,11.33
2019-04-20T07:51:58.005Z,14.20
2019-04-20T07:53:04.427Z,14.53
2019-04-20T07:54:10.644Z,14.10
2019-04-20T07:55:12.138Z,14.43
2019-04-20T07:55:52.380Z,14.15
2019-04-20T07:56:39.830Z,8.15
2019-04-20T07:57:25.305Z,11.48
2019-04-20T07:58:10.925Z,9.45
2019-04-20T07:58:55.306Z,10.93
2019-04-20T08:00:03.327Z,12.98
2019-04-20T08:02:12.001Z,13.60
2019-04-20T08:03:12.754Z,10.03
2019-04-20T08:04:06.640Z,14.75
2019-04-20T08:04:55.046Z,12.28
2019-04-20T08:05:53.804Z,13.85
2019-04-20T08:06:43.387Z,14.07
2019-04-20T08:07:39.186Z,12.58
2019-04-20T08:08:32.727Z,12.37
2019-04-20T08:09:22.234Z,12.58
2019-04-20T08:10:09.128Z,12.55
2019-04-20T08:11:12.675Z,10.85
2019-04-20T08:12:11.304Z,10.48
2019-04-20T08:13:09.546Z,10.72
2019-04-20T08:13:51.399Z,9.98
2019-04-20T08:14:50.144Z,11.18
2019-04-20T08:15:46.150Z,12.37
2019-04-20T08:16:38.252Z,16.62
2019-04-20T08:17:41.898Z,11.83
2019-04-20T08:18:12.088Z,12.58
2019-04-20T08:19:00.936Z,12.10
2019-04-20T08:19:46.350Z,12.25
2019-04-20T08:20:43.839Z,10.58
2019-04-20T08:21:35.089Z,12.37
2019-04-20T08:22:26.602Z,12.28
2019-04-20T08:23:17.144Z,12.30
2019-04-20T08:24:02.466Z,11.78
2019-04-20T08:24:52.418Z,8.63
2019-04-20T08:25:39.642Z,12.60
2019-04-20T08:26:26.115Z,9.73
2019-04-20T08:27:13.177Z,8.93
2019-04-20T08:28:35.866Z,13.13
2019-04-20T08:29:41.740Z,11.57
2019-04-20T08:30:33.958Z,10.75
2019-04-20T08:31:55.915Z,11.15
2019-04-20T08:33:13.143Z,12.63
2019-04-20T08:34:28.258Z,12.95
2019-04-20T08:35:07.110Z,13.03
2019-04-20T08:35:53.952Z,11.55
2019-04-20T08:36:47.809Z,10.75
2019-04-20T08:37:32.948Z,7.45
2019-04-20T08:40:12.056Z,9.75
2019-04-20T08:41:00.303Z,8.17
2019-04-20T08:41:57.070Z,12.20
2019-04-20T08:42:57.262Z,8.23
2019-04-20T08:43:47.037Z,13.47
2019-04-20T08:45:16.363Z,9.25
2019-04-20T08:46:05.507Z,9.27
2019-04-20T08:47:24.204Z,8.23
2019-04-20T08:47:57.138Z,7.87
2019-04-20T08:48:43.500Z,7.77
2019-04-20T08:49:35.449Z,8.90
2019-04-20T08:50:22.384Z,8.93
2019-04-20T08:51:16.532Z,12.67
2019-04-20T08:52:52.067Z,8.47
2019-04-20T08:53:12.762Z,8.37
2019-04-20T08:53:47.107Z,8.53
2019-04-20T08:54:34.348Z,7.63
2019-04-20T08:55:29.478Z,10.00
2019-04-20T08:56:14.544Z,10.40
2019-04-20T08:56:57.143Z,9.80
2019-04-20T08:57:46.795Z,7.63
2019-04-20T08:58:37.110Z,8.63
2019-04-20T08:59:28.928Z,8.87
2019-04-20T09:00:27.500Z,10.37
2019-04-20T09:01:20.215Z,8.53
2019-04-20T09:02:08.395Z,13.27
2019-04-20T09:03:00.901Z,7.30
2019-04-20T09:03:56.533Z,8.83
2019-04-20T09:04:46.084Z,7.33
2019-04-20T09:05:41.352Z,17.93
2019-04-20T09:06:32.320Z,12.20
2019-04-20T09:07:18.115Z,8.33
2019-04-20T09:08:11.366Z,7.23
2019-04-20T09:09:11.695Z,6.20
2019-04-20T09:10:14.359Z,9.03
2019-04-20T09:10:54.137Z,8.00
2019-04-20T09:11:49.549Z,7.27
2019-04-20T09:12:35.422Z,8.60
2019-04-20T09:13:22.289Z,7.97
2019-04-20T09:14:18.752Z,5.80
2019-04-20T09:15:12.435Z,8.17
2019-04-20T09:16:02.183Z,6.77
2019-04-20T09:17:02.818Z,7.27
2019-04-20T09:18:00.597Z,8.50
2019-04-20T09:18:56.685Z,7.03
2019-04-20T09:19:46.808Z,9.93
2019-04-20T09:20:36.557Z,7.50
2019-04-20T09:21:30.889Z,7.47
2019-04-20T09:22:40.221Z,5.77
2019-04-20T09:23:36.785Z,8.37
2019-04-20T09:24:34.651Z,7.73
2019-04-20T09:25:42.835Z,10.10
2019-04-20T09:26:29.399Z,7.67
2019-04-20T09:27:04.727Z,8.90
2019-04-20T09:27:45.907Z,5.83
2019-04-20T09:28:59.240Z,8.10
2019-04-20T09:29:43.782Z,7.57
2019-04-20T09:30:37.289Z,12.67
2019-04-20T09:31:36.891Z,9.47
2019-04-20T09:32:28.700Z,6.27
2019-04-20T09:33:41.991Z,6.33
2019-04-20T09:34:42.372Z,7.00
2019-04-20T09:35:33.246Z,12.20
2019-04-20T09:36:18.498Z,6.30
2019-04-20T09:37:44.637Z,12.47
2019-04-20T09:38:30.021Z,8.17
2019-04-20T09:40:04.319Z,8.57
2019-04-20T09:40:54.265Z,10.37
2019-04-20T09:41:58.474Z,8.77
2019-04-20T09:42:36.846Z,7.37
2019-04-20T09:43:38.984Z,6.90
2019-04-20T09:44:31.496Z,12.73
2019-04-20T09:45:33.029Z,13.83
2019-04-20T09:46:15.711Z,7.80
2019-04-20T09:47:07.338Z,11.03
2019-04-20T09:47:58.145Z,10.40
2019-04-20T09:48:55.604Z,8.90
2019-04-20T09:49:49.804Z,7.67
2019-04-20T09:50:47.585Z,7.27
2019-04-20T09:51:42.384Z,10.73
2019-04-20T09:52:27.849Z,7.60
2019-04-20T09:53:19.743Z,10.30
2019-04-20T09:54:04.032Z,9.37
2019-04-20T09:54:59.297Z,8.27
2019-04-20T09:55:53.616Z,11.70
2019-04-20T09:56:39.520Z,11.93
2019-04-20T09:57:38.057Z,11.67
2019-04-20T09:58:21.342Z,12.20
2019-04-20T09:59:26.896Z,10.50
2019-04-20T10:00:11.795Z,8.90
2019-04-20T10:01:03.344Z,8.67
2019-04-20T10:01:43.694Z,11.27
2019-04-20T10:02:32.487Z,10.97
2019-04-20T10:03:18.825Z,10.93
2019-04-20T10:04:11.042Z,9.73
2019-04-20T10:05:02.031Z,10.37
2019-04-20T10:05:53.769Z,11.50
2019-04-20T10:06:43.619Z,12.83
2019-04-20T10:07:37.282Z,10.40
2019-04-20T10:08:27.535Z,10.80
2019-04-20T10:09:20.422Z,6.23
2019-04-20T10:10:22.697Z,7.37
2019-04-20T10:10:59.499Z,7.47
2019-04-20T10:11:51.605Z,7.30
2019-04-20T10:12:43.937Z,5.90
2019-04-20T10:13:34.360Z,10.10
2019-04-20T10:14:24.923Z,24.17
2019-04-20T10:15:21.363Z,11.60
2019-04-20T10:16:08.329Z,12.50
2019-04-20T10:17:00.074Z,8.67
2019-04-20T10:17:49.974Z,7.40
2019-04-20T10:18:45.499Z,10.00
2019-04-20T10:19:34.646Z,9.53
2019-04-20T10:20:28.228Z,12.57
2019-04-20T10:21:13.755Z,10.33
2019-04-20T10:22:04.548Z,6.37
2019-04-20T10:22:54.426Z,6.57
2019-04-20T10:23:45.598Z,10.07
2019-04-20T10:24:36.964Z,11.83
2019-04-20T10:25:28.674Z,9.83
2019-04-20T10:26:18.957Z,10.83
2019-04-20T10:27:12.597Z,9.83
2019-04-20T10:28:03.358Z,8.40
2019-04-20T10:28:52.879Z,10.33
2019-04-20T10:29:44.109Z,15.40
2019-04-20T10:30:34.913Z,12.67
2019-04-20T10:31:26.464Z,8.43
2019-04-20T10:32:17.888Z,10.93
2019-04-20T10:33:07.886Z,10.27
2019-04-20T10:33:59.762Z,8.77
2019-04-20T10:34:50.697Z,7.97
2019-04-20T10:35:41.655Z,8.40
2019-04-20T10:37:01.708Z,8.80
2019-04-20T10:38:01.029Z,9.47
2019-04-20T10:38:54.760Z,8.33
2019-04-20T10:39:44.702Z,7.60
2019-04-20T10:40:47.334Z,7.53
2019-04-20T10:41:36.014Z,11.53
2019-04-20T10:42:18.339Z,8.87
2019-04-20T10:43:10.228Z,8.13
2019-04-20T10:44:00.755Z,12.27
2019-04-20T10:44:54.877Z,8.53
2019-04-20T10:45:42.017Z,6.30
2019-04-20T10:46:33.301Z,6.73
2019-04-20T10:47:25.421Z,7.17
2019-04-20T10:48:17.352Z,7.00
2019-04-20T10:49:09.469Z,7.10
2019-04-20T10:50:00.926Z,10.33
2019-04-20T10:50:52.713Z,5.90
2019-04-20T10:51:43.953Z,5.73
2019-04-20T10:52:33.976Z,6.27
2019-04-20T10:53:23.885Z,10.37
2019-04-20T10:54:14.560Z,8.00
2019-04-20T10:55:08.373Z,6.20
2019-04-20T10:55:57.741Z,6.83
2019-04-20T10:56:49.776Z,7.27
2019-04-20T10:57:39.679Z,8.40
2019-04-20T10:58:31.766Z,8.73
2019-04-20T10:59:21.886Z,9.20
2019-04-20T11:00:13.547Z,10.27
2019-04-20T11:01:03.898Z,7.37
2019-04-20T11:01:55.946Z,5.67
2019-04-20T11:02:47.521Z,10.00
2019-04-20T11:03:36.606Z,6.43
2019-04-20T11:04:28.526Z,6.33
2019-04-20T11:05:18.596Z,8.30
2019-04-20T11:06:11.016Z,8.27
2019-04-20T11:07:02.862Z,6.60
2019-04-20T11:07:54.715Z,6.73
2019-04-20T11:08:44.572Z,7.63
2019-04-20T11:09:37.102Z,8.23
2019-04-20T11:10:30.462Z,6.43
2019-04-20T11:11:25.262Z,8.20
2019-04-20T11:12:10.580Z,7.87
2019-04-20T11:13:01.265Z,6.17
2019-04-20T11:13:51.699Z,8.00
2019-04-20T11:14:45.470Z,8.27
2019-04-20T11:15:32.902Z,5.30
2019-04-20T11:16:24.333Z,6.03
2019-04-20T11:17:14.262Z,9.63
2019-04-20T11:18:07.099Z,5.87
2019-04-20T11:18:57.630Z,6.77
2019-04-20T11:19:47.606Z,5.50
2019-04-20T11:20:39.406Z,5.80
2019-04-20T11:21:29.943Z,6.03
2019-04-20T11:22:20.077Z,6.37
2019-04-20T11:23:11.751Z,8.27
2019-04-20T11:24:02.555Z,5.70
2019-04-20T11:24:52.712Z,5.53
2019-04-20T11:25:44.194Z,5.47
2019-04-20T11:26:37.075Z,5.07
2019-04-20T11:27:25.990Z,5.80
2019-04-20T11:28:17.017Z,5.73
2019-04-20T11:29:09.212Z,5.40
2019-04-20T11:30:20.608Z,6.43
2019-04-20T11:31:12.437Z,9.87
2019-04-20T11:32:03.562Z,6.57
2019-04-20T11:32:54.298Z,5.40
2019-04-20T11:33:45.903Z,4.90
2019-04-20T11:34:39.951Z,6.80
2019-04-20T11:35:32.712Z,7.28
2019-04-20T11:36:19.191Z,5.55
2019-04-20T11:37:10.809Z,6.58
2019-04-20T11:38:00.975Z,8.88
2019-04-20T11:38:53.050Z,7.78
2019-04-20T11:39:47.394Z,5.78
2019-04-20T11:40:39.361Z,6.30
2019-04-20T11:41:34.038Z,5.70
2019-04-20T11:42:23.551Z,7.42
2019-04-20T11:43:15.620Z,6.12
2019-04-20T11:44:07.687Z,9.68
2019-04-20T11:44:57.955Z,5.33
2019-04-20T11:45:51.081Z,4.85
2019-04-20T11:46:42.925Z,8.83